sensor_id;sensor_type;location;lat;lon;timestamp;temperature;humidity
210;DHT22;90;48.810;9.120;2024-03-22T00:01:45;10.90;83.00
210;DHT22;90;48.810;9.120;2024-03-22T00:04:17;10.90;83.00
210;DHT22;90;48.810;9.120;2024-03-22T00:06:45;10.80;83.00
210;DHT22;90;48.810;9.120;2024-03-22T00:09:12;10.90;82.80
210;DHT22;90;48.810;9.120;2024-03-22T00:11:40;10.80;83.10
210;DHT22;90;48.810;9.120;2024-03-22T00:14:06;10.80;83.00
210;DHT22;90;48.810;9.120;2024-03-22T00:16:33;10.80;83.00
210;DHT22;90;48.810;9.120;2024-03-22T00:19:00;10.80;82.90
210;DHT22;90;48.810;9.120;2024-03-22T00:21:27;10.80;82.60
210;DHT22;90;48.810;9.120;2024-03-22T00:23:53;10.80;82.60
210;DHT22;90;48.810;9.120;2024-03-22T00:26:20;10.70;82.50
210;DHT22;90;48.810;9.120;2024-03-22T00:28:46;10.70;82.50
210;DHT22;90;48.810;9.120;2024-03-22T00:31:13;10.70;82.40
210;DHT22;90;48.810;9.120;2024-03-22T00:33:39;10.70;82.10
210;DHT22;90;48.810;9.120;2024-03-22T00:36:08;10.60;82.30
210;DHT22;90;48.810;9.120;2024-03-22T00:38:34;10.60;82.40
210;DHT22;90;48.810;9.120;2024-03-22T00:41:01;10.60;82.20
210;DHT22;90;48.810;9.120;2024-03-22T00:43:26;10.70;82.00
210;DHT22;90;48.810;9.120;2024-03-22T00:45:53;10.60;81.90
210;DHT22;90;48.810;9.120;2024-03-22T00:48:19;10.50;82.10
210;DHT22;90;48.810;9.120;2024-03-22T00:50:45;10.50;82.00
210;DHT22;90;48.810;9.120;2024-03-22T00:53:12;10.50;82.00
210;DHT22;90;48.810;9.120;2024-03-22T00:55:39;10.40;82.10
210;DHT22;90;48.810;9.120;2024-03-22T00:58:05;10.40;82.00
210;DHT22;90;48.810;9.120;2024-03-22T01:00:32;10.40;82.00
210;DHT22;90;48.810;9.120;2024-03-22T01:02:57;10.40;82.60
210;DHT22;90;48.810;9.120;2024-03-22T01:05:24;10.40;82.70
210;DHT22;90;48.810;9.120;2024-03-22T01:07:51;10.40;82.60
210;DHT22;90;48.810;9.120;2024-03-22T01:10:19;10.40;82.80
210;DHT22;90;48.810;9.120;2024-03-22T01:12:45;10.40;82.90
210;DHT22;90;48.810;9.120;2024-03-22T01:15:12;10.50;82.10
210;DHT22;90;48.810;9.120;2024-03-22T01:17:37;10.40;81.60
210;DHT22;90;48.810;9.120;2024-03-22T01:20:04;10.40;81.30
210;DHT22;90;48.810;9.120;2024-03-22T01:22:30;10.30;81.40
210;DHT22;90;48.810;9.120;2024-03-22T01:24:57;10.20;81.00
210;DHT22;90;48.810;9.120;2024-03-22T01:27:24;10.10;81.50
210;DHT22;90;48.810;9.120;2024-03-22T01:29:50;10.00;81.60
210;DHT22;90;48.810;9.120;2024-03-22T01:32:16;9.90;82.00
210;DHT22;90;48.810;9.120;2024-03-22T01:34:43;9.90;82.30
210;DHT22;90;48.810;9.120;2024-03-22T01:37:08;9.80;82.50
210;DHT22;90;48.810;9.120;2024-03-22T01:39:35;9.80;82.50
210;DHT22;90;48.810;9.120;2024-03-22T01:42:01;9.80;82.80
210;DHT22;90;48.810;9.120;2024-03-22T01:44:30;9.70;83.10
210;DHT22;90;48.810;9.120;2024-03-22T01:46:57;9.70;83.20
210;DHT22;90;48.810;9.120;2024-03-22T01:49:25;9.70;82.90
210;DHT22;90;48.810;9.120;2024-03-22T01:51:51;9.70;82.20
210;DHT22;90;48.810;9.120;2024-03-22T01:54:19;9.60;82.60
210;DHT22;90;48.810;9.120;2024-03-22T01:56:46;9.60;82.70
210;DHT22;90;48.810;9.120;2024-03-22T01:59:13;9.40;82.90
210;DHT22;90;48.810;9.120;2024-03-22T02:01:40;9.40;83.20
210;DHT22;90;48.810;9.120;2024-03-22T02:04:07;9.50;83.00
210;DHT22;90;48.810;9.120;2024-03-22T02:06:32;9.50;83.10
210;DHT22;90;48.810;9.120;2024-03-22T02:09:00;9.40;83.00
210;DHT22;90;48.810;9.120;2024-03-22T02:11:26;9.40;82.70
210;DHT22;90;48.810;9.120;2024-03-22T02:13:53;9.40;82.90
210;DHT22;90;48.810;9.120;2024-03-22T02:16:19;9.30;83.10
210;DHT22;90;48.810;9.120;2024-03-22T02:18:47;9.30;83.30
210;DHT22;90;48.810;9.120;2024-03-22T02:21:12;9.20;83.50
210;DHT22;90;48.810;9.120;2024-03-22T02:23:40;9.20;83.30
210;DHT22;90;48.810;9.120;2024-03-22T02:26:07;9.20;83.80
210;DHT22;90;48.810;9.120;2024-03-22T02:28:35;9.10;83.90
210;DHT22;90;48.810;9.120;2024-03-22T02:31:01;9.30;83.70
210;DHT22;90;48.810;9.120;2024-03-22T02:33:28;9.30;83.10
210;DHT22;90;48.810;9.120;2024-03-22T02:35:54;9.30;82.90
210;DHT22;90;48.810;9.120;2024-03-22T02:38:21;9.30;83.00
210;DHT22;90;48.810;9.120;2024-03-22T02:40:49;9.30;83.30
210;DHT22;90;48.810;9.120;2024-03-22T02:43:16;9.30;83.00
210;DHT22;90;48.810;9.120;2024-03-22T02:45:43;9.30;82.60
210;DHT22;90;48.810;9.120;2024-03-22T02:48:09;9.30;82.40
210;DHT22;90;48.810;9.120;2024-03-22T02:50:36;9.30;82.40
210;DHT22;90;48.810;9.120;2024-03-22T02:53:04;9.30;82.80
210;DHT22;90;48.810;9.120;2024-03-22T02:55:30;9.30;82.80
210;DHT22;90;48.810;9.120;2024-03-22T02:57:58;9.20;83.50
210;DHT22;90;48.810;9.120;2024-03-22T03:00:23;9.30;83.70
210;DHT22;90;48.810;9.120;2024-03-22T03:02:50;9.30;83.90
210;DHT22;90;48.810;9.120;2024-03-22T03:05:16;9.30;83.90
210;DHT22;90;48.810;9.120;2024-03-22T03:07:43;9.30;83.90
210;DHT22;90;48.810;9.120;2024-03-22T03:10:09;9.30;84.10
210;DHT22;90;48.810;9.120;2024-03-22T03:12:36;9.30;84.10
210;DHT22;90;48.810;9.120;2024-03-22T03:15:04;9.30;84.40
210;DHT22;90;48.810;9.120;2024-03-22T03:17:31;9.30;84.50
210;DHT22;90;48.810;9.120;2024-03-22T03:19:56;9.40;84.30
210;DHT22;90;48.810;9.120;2024-03-22T03:22:23;9.40;84.10
210;DHT22;90;48.810;9.120;2024-03-22T03:24:49;9.40;84.00
210;DHT22;90;48.810;9.120;2024-03-22T03:27:16;9.40;83.80
210;DHT22;90;48.810;9.120;2024-03-22T03:29:42;9.30;84.20
210;DHT22;90;48.810;9.120;2024-03-22T03:32:10;9.20;84.50
210;DHT22;90;48.810;9.120;2024-03-22T03:34:36;9.30;84.20
210;DHT22;90;48.810;9.120;2024-03-22T03:37:03;9.40;84.00
210;DHT22;90;48.810;9.120;2024-03-22T03:39:29;9.40;83.80
210;DHT22;90;48.810;9.120;2024-03-22T03:41:58;9.40;83.60
210;DHT22;90;48.810;9.120;2024-03-22T03:44:23;9.50;83.60
210;DHT22;90;48.810;9.120;2024-03-22T03:46:50;9.50;83.50
210;DHT22;90;48.810;9.120;2024-03-22T03:49:18;9.50;83.20
210;DHT22;90;48.810;9.120;2024-03-22T03:51:45;9.50;83.30
210;DHT22;90;48.810;9.120;2024-03-22T03:54:11;9.50;83.30
210;DHT22;90;48.810;9.120;2024-03-22T03:56:38;9.50;83.10
210;DHT22;90;48.810;9.120;2024-03-22T03:59:04;9.50;82.90
210;DHT22;90;48.810;9.120;2024-03-22T04:01:31;9.50;83.10
210;DHT22;90;48.810;9.120;2024-03-22T04:03:56;9.40;83.10
210;DHT22;90;48.810;9.120;2024-03-22T04:06:25;9.50;82.90
210;DHT22;90;48.810;9.120;2024-03-22T04:08:51;9.40;82.90
210;DHT22;90;48.810;9.120;2024-03-22T04:11:20;9.40;82.80
210;DHT22;90;48.810;9.120;2024-03-22T04:13:46;9.30;83.30
210;DHT22;90;48.810;9.120;2024-03-22T04:16:14;9.30;83.60
210;DHT22;90;48.810;9.120;2024-03-22T04:18:39;9.20;83.80
210;DHT22;90;48.810;9.120;2024-03-22T04:21:06;9.30;84.00
210;DHT22;90;48.810;9.120;2024-03-22T04:23:34;9.30;84.00
210;DHT22;90;48.810;9.120;2024-03-22T04:26:01;9.30;84.00
210;DHT22;90;48.810;9.120;2024-03-22T04:28:29;9.30;84.30
210;DHT22;90;48.810;9.120;2024-03-22T04:30:58;9.30;84.90
210;DHT22;90;48.810;9.120;2024-03-22T04:33:24;9.30;84.80
210;DHT22;90;48.810;9.120;2024-03-22T04:35:50;9.40;84.70
210;DHT22;90;48.810;9.120;2024-03-22T04:38:17;9.50;84.70
210;DHT22;90;48.810;9.120;2024-03-22T04:40:45;9.50;84.60
210;DHT22;90;48.810;9.120;2024-03-22T04:43:12;9.60;84.60
210;DHT22;90;48.810;9.120;2024-03-22T04:45:41;9.70;84.30
210;DHT22;90;48.810;9.120;2024-03-22T04:48:08;9.80;84.10
210;DHT22;90;48.810;9.120;2024-03-22T04:50:34;9.80;83.70
210;DHT22;90;48.810;9.120;2024-03-22T04:53:02;9.90;83.80
210;DHT22;90;48.810;9.120;2024-03-22T04:55:28;9.90;83.80
210;DHT22;90;48.810;9.120;2024-03-22T04:57:56;9.90;83.70
210;DHT22;90;48.810;9.120;2024-03-22T05:00:22;9.90;83.80
210;DHT22;90;48.810;9.120;2024-03-22T05:02:50;10.00;83.90
210;DHT22;90;48.810;9.120;2024-03-22T05:05:16;10.00;83.90
210;DHT22;90;48.810;9.120;2024-03-22T05:07:43;10.10;83.70
210;DHT22;90;48.810;9.120;2024-03-22T05:10:09;10.10;84.00
210;DHT22;90;48.810;9.120;2024-03-22T05:12:36;10.10;84.00
210;DHT22;90;48.810;9.120;2024-03-22T05:15:06;10.10;83.90
210;DHT22;90;48.810;9.120;2024-03-22T05:17:32;10.10;84.00
210;DHT22;90;48.810;9.120;2024-03-22T05:19:59;10.10;83.80
210;DHT22;90;48.810;9.120;2024-03-22T05:22:25;10.20;83.50
210;DHT22;90;48.810;9.120;2024-03-22T05:24:52;10.20;83.30
210;DHT22;90;48.810;9.120;2024-03-22T05:27:18;10.20;83.40
210;DHT22;90;48.810;9.120;2024-03-22T05:29:45;10.20;83.60
210;DHT22;90;48.810;9.120;2024-03-22T05:32:13;10.20;83.60
210;DHT22;90;48.810;9.120;2024-03-22T05:34:40;10.20;83.80
210;DHT22;90;48.810;9.120;2024-03-22T05:37:06;10.20;83.70
210;DHT22;90;48.810;9.120;2024-03-22T05:39:34;10.20;84.00
210;DHT22;90;48.810;9.120;2024-03-22T05:42:00;10.10;84.30
210;DHT22;90;48.810;9.120;2024-03-22T05:44:27;10.10;84.50
210;DHT22;90;48.810;9.120;2024-03-22T05:46:53;10.10;84.50
210;DHT22;90;48.810;9.120;2024-03-22T05:49:22;10.00;84.50
210;DHT22;90;48.810;9.120;2024-03-22T05:51:48;10.00;84.70
210;DHT22;90;48.810;9.120;2024-03-22T05:54:15;10.10;84.50
210;DHT22;90;48.810;9.120;2024-03-22T05:56:41;10.10;84.50
210;DHT22;90;48.810;9.120;2024-03-22T05:59:08;10.10;84.50
210;DHT22;90;48.810;9.120;2024-03-22T06:01:36;10.10;84.40
210;DHT22;90;48.810;9.120;2024-03-22T06:04:17;10.20;84.10
210;DHT22;90;48.810;9.120;2024-03-22T06:06:52;10.50;89.60
210;DHT22;90;48.810;9.120;2024-03-22T06:09:18;10.70;84.70
210;DHT22;90;48.810;9.120;2024-03-22T06:11:49;10.70;80.70
210;DHT22;90;48.810;9.120;2024-03-22T06:14:15;10.70;79.90
210;DHT22;90;48.810;9.120;2024-03-22T06:16:43;10.60;80.00
210;DHT22;90;48.810;9.120;2024-03-22T06:19:09;10.60;80.40
210;DHT22;90;48.810;9.120;2024-03-22T06:21:36;10.50;80.70
210;DHT22;90;48.810;9.120;2024-03-22T06:24:04;10.50;81.10
210;DHT22;90;48.810;9.120;2024-03-22T06:26:31;10.50;81.40
210;DHT22;90;48.810;9.120;2024-03-22T06:28:57;10.50;81.40
210;DHT22;90;48.810;9.120;2024-03-22T06:31:26;10.50;81.50
210;DHT22;90;48.810;9.120;2024-03-22T06:33:54;10.50;81.70
210;DHT22;90;48.810;9.120;2024-03-22T06:36:27;10.50;81.90
210;DHT22;90;48.810;9.120;2024-03-22T06:38:56;10.60;81.90
210;DHT22;90;48.810;9.120;2024-03-22T06:41:26;10.60;81.70
210;DHT22;90;48.810;9.120;2024-03-22T06:43:51;10.70;81.70
210;DHT22;90;48.810;9.120;2024-03-22T06:46:18;10.70;81.60
210;DHT22;90;48.810;9.120;2024-03-22T06:48:45;10.70;81.50
210;DHT22;90;48.810;9.120;2024-03-22T06:51:14;10.80;81.30
210;DHT22;90;48.810;9.120;2024-03-22T06:53:43;10.90;81.00
210;DHT22;90;48.810;9.120;2024-03-22T06:56:10;10.90;81.20
210;DHT22;90;48.810;9.120;2024-03-22T06:58:43;11.00;81.80
210;DHT22;90;48.810;9.120;2024-03-22T07:01:10;11.00;82.00
210;DHT22;90;48.810;9.120;2024-03-22T07:03:36;11.10;81.90
210;DHT22;90;48.810;9.120;2024-03-22T07:06:04;11.20;81.60
210;DHT22;90;48.810;9.120;2024-03-22T07:08:31;11.20;81.30
210;DHT22;90;48.810;9.120;2024-03-22T07:10:58;11.50;87.20
210;DHT22;90;48.810;9.120;2024-03-22T07:13:34;11.60;84.00
210;DHT22;90;48.810;9.120;2024-03-22T07:16:11;11.60;82.30
210;DHT22;90;48.810;9.120;2024-03-22T07:18:37;11.70;81.80
210;DHT22;90;48.810;9.120;2024-03-22T07:21:08;11.70;81.50
210;DHT22;90;48.810;9.120;2024-03-22T07:23:34;11.70;81.10
210;DHT22;90;48.810;9.120;2024-03-22T07:26:07;11.80;81.00
210;DHT22;90;48.810;9.120;2024-03-22T07:28:36;11.80;80.80
210;DHT22;90;48.810;9.120;2024-03-22T07:31:03;11.80;79.60
210;DHT22;90;48.810;9.120;2024-03-22T07:33:36;11.80;79.30
210;DHT22;90;48.810;9.120;2024-03-22T07:36:08;11.90;79.40
210;DHT22;90;48.810;9.120;2024-03-22T07:38:34;12.00;78.90
210;DHT22;90;48.810;9.120;2024-03-22T07:41:05;12.10;78.50
210;DHT22;90;48.810;9.120;2024-03-22T07:43:31;12.20;78.20
210;DHT22;90;48.810;9.120;2024-03-22T07:45:58;12.40;78.00
210;DHT22;90;48.810;9.120;2024-03-22T07:48:24;12.50;77.60
210;DHT22;90;48.810;9.120;2024-03-22T07:51:03;12.50;77.20
210;DHT22;90;48.810;9.120;2024-03-22T07:53:34;12.60;76.90
210;DHT22;90;48.810;9.120;2024-03-22T07:56:01;12.70;76.60
210;DHT22;90;48.810;9.120;2024-03-22T07:58:27;12.80;76.70
210;DHT22;90;48.810;9.120;2024-03-22T08:00:54;12.90;76.50
210;DHT22;90;48.810;9.120;2024-03-22T08:03:20;13.00;76.30
210;DHT22;90;48.810;9.120;2024-03-22T08:05:47;13.10;76.00
210;DHT22;90;48.810;9.120;2024-03-22T08:08:14;13.10;76.00
210;DHT22;90;48.810;9.120;2024-03-22T08:10:41;13.20;75.40
210;DHT22;90;48.810;9.120;2024-03-22T08:13:07;13.30;74.40
210;DHT22;90;48.810;9.120;2024-03-22T08:15:35;13.40;73.40
210;DHT22;90;48.810;9.120;2024-03-22T08:18:01;13.50;73.00
210;DHT22;90;48.810;9.120;2024-03-22T08:20:28;13.70;72.70
210;DHT22;90;48.810;9.120;2024-03-22T08:22:55;13.80;72.50
210;DHT22;90;48.810;9.120;2024-03-22T08:25:24;14.00;71.40
210;DHT22;90;48.810;9.120;2024-03-22T08:27:50;14.20;70.90
210;DHT22;90;48.810;9.120;2024-03-22T08:30:19;14.20;70.80
210;DHT22;90;48.810;9.120;2024-03-22T08:32:45;14.40;69.90
210;DHT22;90;48.810;9.120;2024-03-22T08:35:13;14.50;69.70
210;DHT22;90;48.810;9.120;2024-03-22T08:37:39;14.60;69.40
210;DHT22;90;48.810;9.120;2024-03-22T08:40:07;14.60;69.30
210;DHT22;90;48.810;9.120;2024-03-22T08:42:35;14.60;68.30
210;DHT22;90;48.810;9.120;2024-03-22T08:45:03;14.50;68.70
210;DHT22;90;48.810;9.120;2024-03-22T08:47:29;14.60;68.80
210;DHT22;90;48.810;9.120;2024-03-22T08:49:58;14.60;69.30
210;DHT22;90;48.810;9.120;2024-03-22T08:52:25;14.60;68.60
210;DHT22;90;48.810;9.120;2024-03-22T08:54:55;14.60;67.30
210;DHT22;90;48.810;9.120;2024-03-22T08:57:21;14.60;68.10
210;DHT22;90;48.810;9.120;2024-03-22T08:59:50;14.70;68.00
210;DHT22;90;48.810;9.120;2024-03-22T09:02:15;14.70;68.10
210;DHT22;90;48.810;9.120;2024-03-22T09:04:43;14.70;67.40
210;DHT22;90;48.810;9.120;2024-03-22T09:07:08;14.60;67.50
210;DHT22;90;48.810;9.120;2024-03-22T09:09:35;14.70;67.40
210;DHT22;90;48.810;9.120;2024-03-22T09:12:01;14.70;67.50
210;DHT22;90;48.810;9.120;2024-03-22T09:14:29;14.70;67.30
210;DHT22;90;48.810;9.120;2024-03-22T09:16:56;14.80;66.60
210;DHT22;90;48.810;9.120;2024-03-22T09:19:23;15.00;66.60
210;DHT22;90;48.810;9.120;2024-03-22T09:21:49;15.00;67.30
210;DHT22;90;48.810;9.120;2024-03-22T09:24:16;15.20;65.50
210;DHT22;90;48.810;9.120;2024-03-22T09:26:42;15.30;64.60
210;DHT22;90;48.810;9.120;2024-03-22T09:29:09;15.30;63.70
210;DHT22;90;48.810;9.120;2024-03-22T09:31:34;15.40;62.80
210;DHT22;90;48.810;9.120;2024-03-22T09:34:03;15.50;62.90
210;DHT22;90;48.810;9.120;2024-03-22T09:36:29;15.70;62.90
210;DHT22;90;48.810;9.120;2024-03-22T09:39:00;15.90;61.60
210;DHT22;90;48.810;9.120;2024-03-22T09:41:25;15.90;62.00
210;DHT22;90;48.810;9.120;2024-03-22T09:43:54;16.00;60.40
210;DHT22;90;48.810;9.120;2024-03-22T09:46:23;16.10;62.10
210;DHT22;90;48.810;9.120;2024-03-22T09:48:50;16.10;61.90
210;DHT22;90;48.810;9.120;2024-03-22T09:51:19;16.10;60.90
210;DHT22;90;48.810;9.120;2024-03-22T09:53:48;16.20;60.30
210;DHT22;90;48.810;9.120;2024-03-22T09:56:15;16.20;60.90
210;DHT22;90;48.810;9.120;2024-03-22T09:58:44;16.30;60.80
210;DHT22;90;48.810;9.120;2024-03-22T10:01:11;16.30;61.20
210;DHT22;90;48.810;9.120;2024-03-22T10:03:38;16.40;60.70
210;DHT22;90;48.810;9.120;2024-03-22T10:06:05;16.40;60.60
210;DHT22;90;48.810;9.120;2024-03-22T10:08:33;16.40;60.90
210;DHT22;90;48.810;9.120;2024-03-22T10:11:01;16.30;61.40
210;DHT22;90;48.810;9.120;2024-03-22T10:13:28;16.30;62.00
210;DHT22;90;48.810;9.120;2024-03-22T10:15:54;16.30;62.00
210;DHT22;90;48.810;9.120;2024-03-22T10:18:21;16.30;61.30
210;DHT22;90;48.810;9.120;2024-03-22T10:20:59;16.30;59.60
210;DHT22;90;48.810;9.120;2024-03-22T10:23:26;16.30;60.00
210;DHT22;90;48.810;9.120;2024-03-22T10:25:53;16.30;60.40
210;DHT22;90;48.810;9.120;2024-03-22T10:28:21;16.30;60.50
210;DHT22;90;48.810;9.120;2024-03-22T10:30:47;16.40;60.50
210;DHT22;90;48.810;9.120;2024-03-22T10:33:15;16.50;61.00
210;DHT22;90;48.810;9.120;2024-03-22T10:35:43;16.60;60.70
210;DHT22;90;48.810;9.120;2024-03-22T10:38:12;16.60;60.20
210;DHT22;90;48.810;9.120;2024-03-22T10:40:39;16.70;59.30
210;DHT22;90;48.810;9.120;2024-03-22T10:43:07;16.80;59.80
210;DHT22;90;48.810;9.120;2024-03-22T10:45:34;16.90;60.20
210;DHT22;90;48.810;9.120;2024-03-22T10:48:02;16.90;60.40
210;DHT22;90;48.810;9.120;2024-03-22T10:50:31;16.90;58.60
210;DHT22;90;48.810;9.120;2024-03-22T10:53:02;17.00;67.10
210;DHT22;90;48.810;9.120;2024-03-22T10:55:32;17.10;61.30
210;DHT22;90;48.810;9.120;2024-03-22T10:58:00;17.00;60.50
210;DHT22;90;48.810;9.120;2024-03-22T11:00:31;17.00;60.60
210;DHT22;90;48.810;9.120;2024-03-22T11:02:59;17.10;59.20
210;DHT22;90;48.810;9.120;2024-03-22T11:05:28;17.10;59.10
210;DHT22;90;48.810;9.120;2024-03-22T11:07:59;17.20;59.50
210;DHT22;90;48.810;9.120;2024-03-22T11:10:28;17.20;61.00
210;DHT22;90;48.810;9.120;2024-03-22T11:13:00;17.40;62.00
210;DHT22;90;48.810;9.120;2024-03-22T11:15:28;17.40;59.60
210;DHT22;90;48.810;9.120;2024-03-22T11:17:56;17.50;59.60
210;DHT22;90;48.810;9.120;2024-03-22T11:20:37;17.40;59.50
210;DHT22;90;48.810;9.120;2024-03-22T11:23:12;17.40;59.50
210;DHT22;90;48.810;9.120;2024-03-22T11:25:41;17.50;59.30
210;DHT22;90;48.810;9.120;2024-03-22T11:28:12;17.60;58.10
210;DHT22;90;48.810;9.120;2024-03-22T11:31:00;17.70;56.50
210;DHT22;90;48.810;9.120;2024-03-22T11:33:41;17.80;56.70
210;DHT22;90;48.810;9.120;2024-03-22T11:39:27;17.90;53.90
210;DHT22;90;48.810;9.120;2024-03-22T11:42:27;17.90;54.70
210;DHT22;90;48.810;9.120;2024-03-22T11:45:23;18.00;53.50
210;DHT22;90;48.810;9.120;2024-03-22T11:48:13;18.10;53.90
210;DHT22;90;48.810;9.120;2024-03-22T11:51:05;18.10;53.90
210;DHT22;90;48.810;9.120;2024-03-22T11:53:50;18.20;53.60
210;DHT22;90;48.810;9.120;2024-03-22T11:56:27;18.20;53.70
210;DHT22;90;48.810;9.120;2024-03-22T11:59:03;18.20;52.90
210;DHT22;90;48.810;9.120;2024-03-22T12:01:47;18.20;52.10
210;DHT22;90;48.810;9.120;2024-03-22T12:08:04;18.20;52.90
210;DHT22;90;48.810;9.120;2024-03-22T12:14:29;18.10;52.30
210;DHT22;90;48.810;9.120;2024-03-22T12:17:37;18.00;53.50
210;DHT22;90;48.810;9.120;2024-03-22T12:20:32;18.00;53.60
210;DHT22;90;48.810;9.120;2024-03-22T12:23:27;18.10;53.30
210;DHT22;90;48.810;9.120;2024-03-22T12:26:11;18.10;53.20
210;DHT22;90;48.810;9.120;2024-03-22T12:28:48;18.10;53.10
210;DHT22;90;48.810;9.120;2024-03-22T12:31:18;18.10;53.90
210;DHT22;90;48.810;9.120;2024-03-22T12:33:50;18.00;54.60
210;DHT22;90;48.810;9.120;2024-03-22T12:36:20;18.00;54.90
210;DHT22;90;48.810;9.120;2024-03-22T12:41:55;18.00;54.10
210;DHT22;90;48.810;9.120;2024-03-22T12:44:33;18.00;54.40
210;DHT22;90;48.810;9.120;2024-03-22T12:47:02;18.10;53.70
210;DHT22;90;48.810;9.120;2024-03-22T12:49:40;18.10;54.60
210;DHT22;90;48.810;9.120;2024-03-22T12:52:10;18.10;54.20
210;DHT22;90;48.810;9.120;2024-03-22T12:54:53;18.10;54.40
210;DHT22;90;48.810;9.120;2024-03-22T12:57:25;18.10;54.80
210;DHT22;90;48.810;9.120;2024-03-22T13:00:23;18.20;53.40
210;DHT22;90;48.810;9.120;2024-03-22T13:02:54;18.10;52.30
210;DHT22;90;48.810;9.120;2024-03-22T13:05:21;18.30;70.90
210;DHT22;90;48.810;9.120;2024-03-22T13:07:46;18.70;67.90
210;DHT22;90;48.810;9.120;2024-03-22T13:10:15;19.00;64.50
210;DHT22;90;48.810;9.120;2024-03-22T13:12:40;19.20;64.70
210;DHT22;90;48.810;9.120;2024-03-22T13:15:08;19.40;63.10
210;DHT22;90;48.810;9.120;2024-03-22T13:17:33;19.60;61.90
210;DHT22;90;48.810;9.120;2024-03-22T13:20:00;19.60;52.70
210;DHT22;90;48.810;9.120;2024-03-22T13:22:52;19.30;51.20
210;DHT22;90;48.810;9.120;2024-03-22T13:25:40;19.10;52.10
210;DHT22;90;48.810;9.120;2024-03-22T13:28:12;18.90;53.00
210;DHT22;90;48.810;9.120;2024-03-22T13:31:04;18.80;53.30
210;DHT22;90;48.810;9.120;2024-03-22T13:33:39;18.80;51.50
210;DHT22;90;48.810;9.120;2024-03-22T13:36:16;18.80;51.90
210;DHT22;90;48.810;9.120;2024-03-22T13:39:06;18.80;51.90
210;DHT22;90;48.810;9.120;2024-03-22T13:42:04;18.70;52.30
210;DHT22;90;48.810;9.120;2024-03-22T13:44:39;18.70;52.20
210;DHT22;90;48.810;9.120;2024-03-22T13:47:20;18.70;52.00
210;DHT22;90;48.810;9.120;2024-03-22T13:49:54;18.70;51.60
210;DHT22;90;48.810;9.120;2024-03-22T13:52:21;18.70;51.70
210;DHT22;90;48.810;9.120;2024-03-22T13:54:49;18.70;52.60
210;DHT22;90;48.810;9.120;2024-03-22T13:57:18;18.70;52.80
210;DHT22;90;48.810;9.120;2024-03-22T13:59:47;18.70;53.10
210;DHT22;90;48.810;9.120;2024-03-22T14:02:15;18.70;53.10
210;DHT22;90;48.810;9.120;2024-03-22T14:04:43;18.60;54.00
210;DHT22;90;48.810;9.120;2024-03-22T14:07:11;18.50;55.00
210;DHT22;90;48.810;9.120;2024-03-22T14:09:37;18.40;56.00
210;DHT22;90;48.810;9.120;2024-03-22T14:12:05;18.40;55.20
210;DHT22;90;48.810;9.120;2024-03-22T14:14:38;18.30;55.00
210;DHT22;90;48.810;9.120;2024-03-22T14:17:07;18.10;53.70
210;DHT22;90;48.810;9.120;2024-03-22T14:19:39;18.00;53.80
210;DHT22;90;48.810;9.120;2024-03-22T14:22:12;17.90;53.60
210;DHT22;90;48.810;9.120;2024-03-22T14:24:47;17.90;53.10
210;DHT22;90;48.810;9.120;2024-03-22T14:27:35;17.80;52.70
210;DHT22;90;48.810;9.120;2024-03-22T14:30:17;17.70;51.80
210;DHT22;90;48.810;9.120;2024-03-22T14:32:51;17.70;51.80
210;DHT22;90;48.810;9.120;2024-03-22T14:35:19;17.80;51.30
210;DHT22;90;48.810;9.120;2024-03-22T14:38:11;17.70;50.70
210;DHT22;90;48.810;9.120;2024-03-22T14:40:43;17.70;50.70
210;DHT22;90;48.810;9.120;2024-03-22T14:43:26;17.70;50.40
210;DHT22;90;48.810;9.120;2024-03-22T14:46:09;17.80;50.50
210;DHT22;90;48.810;9.120;2024-03-22T14:48:44;17.70;50.70
210;DHT22;90;48.810;9.120;2024-03-22T14:51:11;17.80;50.60
210;DHT22;90;48.810;9.120;2024-03-22T14:53:37;17.70;50.60
210;DHT22;90;48.810;9.120;2024-03-22T14:56:29;17.70;50.90
210;DHT22;90;48.810;9.120;2024-03-22T14:59:12;17.60;50.50
210;DHT22;90;48.810;9.120;2024-03-22T15:02:06;17.60;50.20
210;DHT22;90;48.810;9.120;2024-03-22T15:11:13;17.50;49.20
210;DHT22;90;48.810;9.120;2024-03-22T15:13:39;17.50;49.50
210;DHT22;90;48.810;9.120;2024-03-22T15:16:06;17.40;49.80
210;DHT22;90;48.810;9.120;2024-03-22T15:18:34;17.40;49.60
210;DHT22;90;48.810;9.120;2024-03-22T15:20:59;17.40;50.10
210;DHT22;90;48.810;9.120;2024-03-22T15:23:26;17.40;50.20
210;DHT22;90;48.810;9.120;2024-03-22T15:25:52;17.30;51.40
210;DHT22;90;48.810;9.120;2024-03-22T15:28:18;17.30;51.40
210;DHT22;90;48.810;9.120;2024-03-22T15:30:44;17.30;51.50
210;DHT22;90;48.810;9.120;2024-03-22T15:33:11;17.20;52.10
210;DHT22;90;48.810;9.120;2024-03-22T15:35:38;17.20;52.70
210;DHT22;90;48.810;9.120;2024-03-22T15:38:07;17.20;52.30
210;DHT22;90;48.810;9.120;2024-03-22T15:40:32;17.20;53.20
210;DHT22;90;48.810;9.120;2024-03-22T15:43:00;17.20;64.00
210;DHT22;90;48.810;9.120;2024-03-22T15:45:26;17.50;57.60
210;DHT22;90;48.810;9.120;2024-03-22T15:47:53;17.50;52.80
210;DHT22;90;48.810;9.120;2024-03-22T15:50:18;17.40;51.80
210;DHT22;90;48.810;9.120;2024-03-22T15:52:46;17.40;58.20
210;DHT22;90;48.810;9.120;2024-03-22T15:55:12;17.80;66.40
210;DHT22;90;48.810;9.120;2024-03-22T15:57:39;18.10;63.80
210;DHT22;90;48.810;9.120;2024-03-22T16:00:06;18.00;52.80
210;DHT22;90;48.810;9.120;2024-03-22T16:02:37;17.90;52.30
210;DHT22;90;48.810;9.120;2024-03-22T16:05:03;17.70;52.40
210;DHT22;90;48.810;9.120;2024-03-22T16:07:30;17.60;52.90
210;DHT22;90;48.810;9.120;2024-03-22T16:09:57;17.40;53.70
210;DHT22;90;48.810;9.120;2024-03-22T16:12:26;17.30;54.50
210;DHT22;90;48.810;9.120;2024-03-22T16:14:51;17.20;55.00
210;DHT22;90;48.810;9.120;2024-03-22T16:17:19;17.20;55.20
210;DHT22;90;48.810;9.120;2024-03-22T16:19:45;17.10;55.80
210;DHT22;90;48.810;9.120;2024-03-22T16:22:11;17.10;56.00
210;DHT22;90;48.810;9.120;2024-03-22T16:24:37;17.00;56.00
210;DHT22;90;48.810;9.120;2024-03-22T16:27:05;17.00;56.00
210;DHT22;90;48.810;9.120;2024-03-22T16:29:31;17.10;56.30
210;DHT22;90;48.810;9.120;2024-03-22T16:31:58;17.20;56.60
210;DHT22;90;48.810;9.120;2024-03-22T16:34:23;17.10;57.00
210;DHT22;90;48.810;9.120;2024-03-22T16:36:50;17.10;56.70
210;DHT22;90;48.810;9.120;2024-03-22T16:39:16;17.10;57.10
210;DHT22;90;48.810;9.120;2024-03-22T16:41:43;17.00;57.50
210;DHT22;90;48.810;9.120;2024-03-22T16:44:10;17.00;58.00
210;DHT22;90;48.810;9.120;2024-03-22T16:46:36;16.90;58.50
210;DHT22;90;48.810;9.120;2024-03-22T16:49:03;16.90;58.80
210;DHT22;90;48.810;9.120;2024-03-22T16:51:29;16.80;58.70
210;DHT22;90;48.810;9.120;2024-03-22T16:53:55;16.80;58.90
210;DHT22;90;48.810;9.120;2024-03-22T16:56:21;16.70;59.00
210;DHT22;90;48.810;9.120;2024-03-22T16:58:48;16.70;59.40
210;DHT22;90;48.810;9.120;2024-03-22T17:01:15;16.70;59.60
210;DHT22;90;48.810;9.120;2024-03-22T17:03:41;16.60;60.00
210;DHT22;90;48.810;9.120;2024-03-22T17:06:07;16.60;59.70
210;DHT22;90;48.810;9.120;2024-03-22T17:08:34;16.60;60.00
210;DHT22;90;48.810;9.120;2024-03-22T17:11:00;16.50;59.90
210;DHT22;90;48.810;9.120;2024-03-22T17:13:27;16.50;60.30
210;DHT22;90;48.810;9.120;2024-03-22T17:15:52;16.50;65.00
210;DHT22;90;48.810;9.120;2024-03-22T17:18:21;16.50;61.50
210;DHT22;90;48.810;9.120;2024-03-22T17:20:48;16.40;61.20
210;DHT22;90;48.810;9.120;2024-03-22T17:23:15;16.40;61.50
210;DHT22;90;48.810;9.120;2024-03-22T17:25:40;16.40;62.30
210;DHT22;90;48.810;9.120;2024-03-22T17:28:07;16.30;62.80
210;DHT22;90;48.810;9.120;2024-03-22T17:30:34;16.30;63.50